createdAt,value
2023-05-21T04:00:29.653Z,424.00
2023-05-21T04:01:30.635Z,408.00
2023-05-21T04:02:30.766Z,416.00
2023-05-21T04:03:30.753Z,428.00
2023-05-21T04:04:30.610Z,444.00
2023-05-21T04:05:30.607Z,454.00
2023-05-21T04:06:30.575Z,457.00
2023-05-21T04:07:30.571Z,470.00
2023-05-21T04:08:30.551Z,485.00
2023-05-21T04:09:30.544Z,502.00
2023-05-21T04:10:30.527Z,507.00
2023-05-21T04:11:30.515Z,525.00
2023-05-21T04:12:30.502Z,530.00
2023-05-21T04:13:30.516Z,553.00
2023-05-21T04:14:30.492Z,561.00
2023-05-21T04:15:30.483Z,574.00
2023-05-21T04:16:30.668Z,568.00
2023-05-21T04:17:30.498Z,588.00
2023-05-21T04:18:30.455Z,602.00
2023-05-21T04:19:30.532Z,609.00
2023-05-21T04:20:30.467Z,608.00
2023-05-21T04:21:30.419Z,613.00
2023-05-21T04:22:30.398Z,640.00
2023-05-21T04:23:30.481Z,637.00
2023-05-21T04:24:30.375Z,660.00
2023-05-21T04:25:30.392Z,659.00
2023-05-21T04:26:30.368Z,657.00
2023-05-21T04:27:30.385Z,671.00
2023-05-21T04:28:30.347Z,691.00
2023-05-21T04:29:30.333Z,686.00
2023-05-21T04:30:30.336Z,714.00
2023-05-21T04:31:30.350Z,725.00
2023-05-21T04:32:30.345Z,722.00
2023-05-21T04:33:30.305Z,752.00
2023-05-21T04:34:30.286Z,733.00
2023-05-21T04:35:30.274Z,756.00
2023-05-21T04:36:30.361Z,778.00
2023-05-21T04:37:30.257Z,762.00
2023-05-21T04:38:30.257Z,777.00
2023-05-21T04:39:30.210Z,783.00
2023-05-21T04:40:30.228Z,772.00
2023-05-21T04:41:30.214Z,779.00
2023-05-21T04:42:30.188Z,815.00
2023-05-21T04:43:30.245Z,818.00
2023-05-21T04:44:30.197Z,827.00
2023-05-21T04:45:30.155Z,828.00
2023-05-21T04:46:30.199Z,856.00
2023-05-21T04:47:30.183Z,856.00
2023-05-21T04:48:30.125Z,860.00
2023-05-21T04:49:30.159Z,839.00
2023-05-21T04:50:30.100Z,865.00
2023-05-21T04:51:30.108Z,874.00
2023-05-21T04:52:30.079Z,896.00
2023-05-21T04:53:30.060Z,879.00
2023-05-21T04:54:30.061Z,888.00
2023-05-21T04:55:30.068Z,898.00
2023-05-21T04:56:30.070Z,914.00
2023-05-21T04:57:30.023Z,931.00
2023-05-21T04:58:30.011Z,923.00
2023-05-21T04:59:30.012Z,934.00
2023-05-21T05:00:30.026Z,930.00
2023-05-21T05:01:30.016Z,960.00
2023-05-21T05:02:29.999Z,990.00
2023-05-21T05:03:29.994Z,989.00
2023-05-21T05:04:29.976Z,946.00
2023-05-21T05:05:29.948Z,984.00
2023-05-21T05:06:29.927Z,987.00
2023-05-21T05:07:29.949Z,974.00
2023-05-21T05:08:29.914Z,964.00
2023-05-21T05:09:29.905Z,1043.00
2023-05-21T05:10:29.901Z,1027.00
2023-05-21T05:11:29.871Z,1030.00
2023-05-21T05:12:29.877Z,1040.00
2023-05-21T05:13:29.868Z,1005.00
2023-05-21T05:14:29.835Z,1049.00
2023-05-21T05:15:29.830Z,1049.00
2023-05-21T05:16:29.931Z,1078.00
2023-05-21T05:17:29.837Z,1062.00
2023-05-21T05:18:29.806Z,1112.00
2023-05-21T05:19:29.937Z,1100.00
2023-05-21T05:20:29.773Z,1098.00
2023-05-21T05:21:29.754Z,980.00
2023-05-21T05:22:29.747Z,1153.00
2023-05-21T05:23:29.758Z,1148.00
2023-05-21T05:24:29.726Z,1076.00
2023-05-21T05:25:29.709Z,1160.00
2023-05-21T05:26:29.725Z,1144.00
2023-05-21T05:27:29.696Z,1140.00
2023-05-21T05:28:29.703Z,1094.00
2023-05-21T05:29:29.667Z,1191.00
2023-05-21T05:30:29.659Z,1198.00
2023-05-21T05:31:29.672Z,1200.00
2023-05-21T05:32:29.647Z,1188.00
2023-05-21T05:33:29.647Z,1214.00
2023-05-21T05:34:29.626Z,1236.00
2023-05-21T05:35:29.599Z,1197.00
2023-05-21T05:36:29.591Z,1218.00
2023-05-21T05:37:29.587Z,1245.00
2023-05-21T05:38:29.578Z,1260.00
2023-05-21T05:39:29.557Z,1236.00
2023-05-21T05:40:29.568Z,1237.00
2023-05-21T05:41:29.539Z,1271.00
2023-05-21T05:42:29.536Z,1329.00
2023-05-21T05:43:29.530Z,1338.00
2023-05-21T05:44:29.556Z,1275.00
2023-05-21T05:45:29.514Z,1244.00
2023-05-21T05:46:29.599Z,1264.00
2023-05-21T05:47:29.545Z,1215.00
2023-05-21T05:48:29.527Z,1224.00
2023-05-21T05:49:29.439Z,1317.00
2023-05-21T05:50:29.440Z,1349.00
2023-05-21T05:51:29.412Z,1321.00
2023-05-21T05:54:15.083Z,1301.00
2023-05-21T05:54:40.920Z,1296.00
2023-05-21T05:55:40.920Z,1301.00
2023-05-21T05:59:02.486Z,1301.00
2023-05-21T06:00:03.442Z,1316.00
2023-05-21T06:01:03.453Z,1323.00
2023-05-21T06:02:03.427Z,1320.00
2023-05-21T06:03:03.603Z,1394.00
2023-05-21T06:04:03.452Z,1344.00
2023-05-21T06:05:03.403Z,1341.00
2023-05-21T06:06:03.480Z,1323.00
2023-05-21T06:07:03.370Z,1345.00
2023-05-21T06:08:03.390Z,1354.00
2023-05-21T06:09:03.349Z,1341.00
2023-05-21T06:10:03.424Z,1326.00
2023-05-21T06:11:03.321Z,1326.00
2023-05-21T06:12:03.353Z,1305.00
2023-05-21T06:13:03.385Z,1305.00
2023-05-21T06:14:03.304Z,1261.00
2023-05-21T06:15:03.297Z,1265.00
2023-05-21T06:16:03.504Z,1295.00
2023-05-21T06:17:03.269Z,1323.00
2023-05-21T06:18:03.373Z,1292.00
2023-05-21T06:19:03.252Z,1278.00
2023-05-21T06:20:03.237Z,1277.00
2023-05-21T06:21:03.234Z,1267.00
2023-05-21T06:22:03.355Z,1268.00
2023-05-21T06:23:03.300Z,1248.00
2023-05-21T06:24:03.184Z,1240.00
2023-05-21T06:25:03.198Z,1244.00
2023-05-21T06:26:03.191Z,1228.00
2023-05-21T06:27:03.203Z,1201.00
2023-05-21T06:28:03.196Z,1181.00
2023-05-21T06:29:03.130Z,1160.00
2023-05-21T06:30:03.130Z,1140.00
2023-05-21T06:31:03.187Z,1158.00
2023-05-21T06:32:03.110Z,1142.00
2023-05-21T06:33:03.202Z,1115.00
2023-05-21T06:34:03.235Z,1107.00
2023-05-21T06:35:03.085Z,1083.00
2023-05-21T06:36:03.075Z,1070.00
2023-05-21T06:37:03.068Z,1057.00
2023-05-21T06:38:03.055Z,1038.00
2023-05-21T06:39:03.022Z,1036.00
2023-05-21T06:40:03.045Z,1020.00
2023-05-21T06:41:03.007Z,997.00
2023-05-21T06:42:03.010Z,977.00
2023-05-21T06:43:02.973Z,970.00
2023-05-21T06:44:02.990Z,935.00
2023-05-21T06:45:03.147Z,929.00
2023-05-21T06:46:02.989Z,939.00
2023-05-21T06:47:02.955Z,898.00
2023-05-21T06:48:03.016Z,955.00
2023-05-21T06:49:02.932Z,982.00
2023-05-21T06:50:02.907Z,924.00
2023-05-21T06:51:02.898Z,916.00
2023-05-21T06:52:02.893Z,938.00
2023-05-21T06:53:02.906Z,932.00
2023-05-21T06:54:02.868Z,1062.00
2023-05-21T06:55:02.850Z,975.00
2023-05-21T06:56:02.840Z,914.00
2023-05-21T06:57:02.825Z,953.00
2023-05-21T06:58:02.813Z,904.00
2023-05-21T06:59:02.812Z,886.00
2023-05-21T07:00:02.800Z,988.00
2023-05-21T07:01:02.820Z,894.00
2023-05-21T07:02:04.437Z,1032.00
2023-05-21T07:03:02.853Z,1049.00
2023-05-21T07:04:02.764Z,1098.00
2023-05-21T07:05:02.762Z,1308.00
2023-05-21T07:06:02.751Z,1293.00
2023-05-21T07:07:02.736Z,1262.00
2023-05-21T07:08:02.749Z,1333.00
2023-05-21T07:09:02.694Z,1293.00
2023-05-21T07:10:02.685Z,1162.00
2023-05-21T07:11:02.741Z,1355.00
2023-05-21T07:12:02.711Z,1450.00
2023-05-21T07:13:02.685Z,1416.00
2023-05-21T07:14:02.697Z,1482.00
2023-05-21T07:15:02.635Z,1452.00
2023-05-21T07:16:02.644Z,1523.00
2023-05-21T07:17:02.742Z,1561.00
2023-05-21T07:18:02.681Z,1456.00
2023-05-21T07:19:02.663Z,1582.00
2023-05-21T07:20:02.589Z,1542.00
2023-05-21T07:21:02.556Z,1610.00
2023-05-21T07:22:02.564Z,1534.00
2023-05-21T07:23:02.531Z,1738.00
2023-05-21T07:24:02.580Z,1658.00
2023-05-21T07:25:02.566Z,1780.00
2023-05-21T07:26:02.596Z,1748.00
2023-05-21T07:27:06.509Z,1828.00
2023-05-21T07:28:03.260Z,1844.00
2023-05-21T07:29:02.512Z,1844.00
2023-05-21T07:30:02.950Z,1920.00
2023-05-21T07:31:02.502Z,1880.00
2023-05-21T07:32:02.503Z,1968.00
2023-05-21T07:33:02.597Z,1906.00
2023-05-21T07:34:02.450Z,1911.00
2023-05-21T07:35:02.446Z,1977.00
2023-05-21T07:36:02.693Z,1976.00
2023-05-21T07:37:02.414Z,1918.00
2023-05-21T07:38:02.547Z,2001.00
2023-05-21T07:39:02.419Z,2035.00
2023-05-21T07:40:02.407Z,1871.00
2023-05-21T07:41:02.439Z,2065.00
2023-05-21T07:42:02.362Z,1954.00
2023-05-21T07:43:02.329Z,2089.00
2023-05-21T07:44:02.356Z,2093.00
2023-05-21T07:45:02.381Z,1939.00
2023-05-21T07:46:02.371Z,2028.00
2023-05-21T07:47:02.350Z,2132.00
2023-05-21T07:48:02.402Z,2016.00
2023-05-21T07:49:02.273Z,2120.00
2023-05-21T07:50:02.292Z,2148.00
2023-05-21T07:51:02.305Z,2207.00
2023-05-21T07:52:02.251Z,1924.00
2023-05-21T07:53:02.292Z,2152.00
2023-05-21T07:54:02.210Z,2036.00
2023-05-21T07:55:02.210Z,2245.00
2023-05-21T07:56:02.198Z,2330.00
2023-05-21T07:57:02.190Z,2374.00
2023-05-21T07:58:02.173Z,1971.00
2023-05-21T07:59:02.158Z,2133.00
2023-05-21T08:00:02.170Z,2250.00
2023-05-21T08:01:02.136Z,2162.00
2023-05-21T08:02:02.131Z,2270.00
2023-05-21T08:03:02.190Z,2117.00
2023-05-21T08:04:02.375Z,2209.00
2023-05-21T08:05:02.179Z,2342.00
2023-05-21T08:06:02.095Z,2292.00
2023-05-21T08:07:02.076Z,2300.00
2023-05-21T08:08:02.082Z,2269.00
2023-05-21T08:09:02.083Z,2507.00
2023-05-21T08:10:03.031Z,2404.00
2023-05-21T08:11:02.048Z,2030.00
2023-05-21T08:12:02.048Z,2471.00
2023-05-21T08:13:02.005Z,2341.00
2023-05-21T08:14:02.006Z,2253.00
2023-05-21T08:15:01.991Z,2215.00
2023-05-21T08:16:02.103Z,2512.00
2023-05-21T08:17:01.978Z,2296.00
2023-05-21T08:18:02.073Z,2485.00
2023-05-21T08:19:02.028Z,2476.00
2023-05-21T08:20:01.972Z,2362.00
2023-05-21T08:21:01.917Z,2263.00
2023-05-21T08:22:01.912Z,2250.00
2023-05-21T08:23:01.906Z,2473.00
2023-05-21T08:24:02.129Z,2580.00
2023-05-21T08:25:01.881Z,2582.00
2023-05-21T08:26:01.872Z,2394.00
2023-05-21T08:27:01.922Z,2583.00
2023-05-21T08:28:01.892Z,2552.00
2023-05-21T08:29:02.168Z,2581.00
2023-05-21T08:30:01.874Z,2752.00
2023-05-21T08:31:01.868Z,2649.00
2023-05-21T08:32:01.871Z,2595.00
2023-05-21T08:33:01.844Z,2872.00
2023-05-21T08:34:01.822Z,2712.00
2023-05-21T08:35:01.810Z,2835.00
2023-05-21T08:36:01.825Z,3004.00
2023-05-21T08:37:01.754Z,2870.00
2023-05-21T08:38:01.910Z,3040.00
2023-05-21T08:39:01.800Z,2884.00
2023-05-21T08:40:01.737Z,3054.00
2023-05-21T08:41:01.725Z,2942.00
2023-05-21T08:42:01.828Z,3151.00
2023-05-21T08:43:01.705Z,3040.00
2023-05-21T08:44:01.709Z,3179.00
2023-05-21T08:45:01.695Z,3273.00
2023-05-21T08:46:01.724Z,3234.00
2023-05-21T08:47:01.644Z,3240.00
2023-05-21T08:48:01.693Z,3390.00
2023-05-21T08:49:01.630Z,2936.00
2023-05-21T08:50:01.623Z,3184.00
2023-05-21T08:51:01.620Z,3444.00
2023-05-21T08:52:01.593Z,3335.00
2023-05-21T08:53:04.048Z,3259.00
2023-05-21T08:54:01.667Z,3052.00
2023-05-21T08:55:01.561Z,3502.00
2023-05-21T08:56:01.579Z,3715.00
2023-05-21T08:57:01.549Z,3505.00
2023-05-21T08:58:01.578Z,3510.00
2023-05-21T08:59:01.526Z,3477.00
2023-05-21T09:00:01.518Z,3764.00
2023-05-21T09:01:01.535Z,4167.00
2023-05-21T09:02:01.557Z,5135.00
2023-05-21T09:03:01.642Z,3415.00
2023-05-21T09:04:12.340Z,3878.00
2023-05-21T09:05:01.457Z,2218.00
2023-05-21T09:06:01.437Z,4260.00
2023-05-21T09:07:01.430Z,3392.00
2023-05-21T09:08:01.402Z,4124.00
2023-05-21T09:09:01.404Z,4086.00
2023-05-21T09:10:01.422Z,4019.00
2023-05-21T09:11:01.401Z,3497.00
2023-05-21T09:12:01.386Z,2955.00
2023-05-21T09:13:01.441Z,4143.00
2023-05-21T09:14:01.386Z,3826.00
2023-05-21T09:15:01.374Z,4631.00
2023-05-21T09:16:01.346Z,3735.00
2023-05-21T09:17:01.535Z,3874.00
2023-05-21T09:18:01.371Z,3556.00
2023-05-21T09:19:04.363Z,3542.00
2023-05-21T09:20:01.308Z,4767.00
2023-05-21T09:21:01.281Z,4590.00
2023-05-21T09:22:01.265Z,3876.00
2023-05-21T09:23:01.304Z,4295.00
2023-05-21T09:24:01.260Z,3618.00
2023-05-21T09:25:01.296Z,3133.00
2023-05-21T09:26:01.233Z,3553.00
2023-05-21T09:27:01.266Z,3590.00
2023-05-21T09:28:01.187Z,3349.00
2023-05-21T09:29:01.185Z,3975.00
2023-05-21T09:30:01.236Z,4567.00
2023-05-21T09:31:01.185Z,4739.00
2023-05-21T09:32:01.155Z,4235.00
2023-05-21T09:33:01.160Z,4037.00
2023-05-21T09:34:01.140Z,4062.00
2023-05-21T09:35:01.142Z,3317.00
2023-05-21T09:36:01.120Z,3307.00
2023-05-21T09:37:01.136Z,3672.00
2023-05-21T09:38:01.103Z,3926.00
2023-05-21T09:39:01.112Z,3542.00
2023-05-21T09:40:01.093Z,3713.00
2023-05-21T09:41:01.074Z,3905.00
2023-05-21T09:42:01.094Z,4186.00
2023-05-21T09:43:01.062Z,4189.00
2023-05-21T09:44:01.040Z,3808.00
2023-05-21T09:45:01.080Z,3429.00
2023-05-21T09:46:02.137Z,3554.00
2023-05-21T09:47:01.087Z,3685.00
2023-05-21T09:48:01.047Z,3663.00
2023-05-21T09:49:01.002Z,4016.00
2023-05-21T09:50:00.967Z,4191.00
2023-05-21T09:51:01.012Z,3625.00
2023-05-21T09:52:00.956Z,4179.00
2023-05-21T09:53:00.944Z,4104.00
2023-05-21T09:54:00.925Z,3884.00
2023-05-21T09:55:00.950Z,3855.00
2023-05-21T09:56:00.951Z,3110.00
2023-05-21T09:57:00.929Z,3615.00
2023-05-21T09:58:00.875Z,3554.00
2023-05-21T09:59:00.873Z,3006.00
2023-05-21T10:00:00.912Z,2643.00
2023-05-21T10:01:00.846Z,3865.00
2023-05-21T10:02:00.986Z,3925.00
2023-05-21T10:03:01.007Z,3214.00
2023-05-21T10:04:00.888Z,3181.00
2023-05-21T10:05:00.937Z,4165.00
2023-05-21T10:06:00.817Z,4502.00
2023-05-21T10:07:00.796Z,3230.00
2023-05-21T10:08:00.804Z,4165.00
2023-05-21T10:09:01.625Z,3461.00
2023-05-21T10:10:00.802Z,4853.00
2023-05-21T10:11:00.748Z,4280.00
2023-05-21T10:12:00.747Z,5095.00
2023-05-21T10:13:00.753Z,4525.00
2023-05-21T10:14:00.703Z,4580.00
2023-05-21T10:15:00.730Z,4672.00
2023-05-21T10:16:00.867Z,5121.00
2023-05-21T10:17:00.717Z,5114.00
2023-05-21T10:18:00.744Z,4799.00
2023-05-21T10:19:00.763Z,5379.00
2023-05-21T10:20:00.667Z,5548.00
2023-05-21T10:21:00.633Z,6152.00
2023-05-21T10:22:00.661Z,5496.00
2023-05-21T10:23:00.633Z,5829.00
2023-05-21T10:24:00.653Z,5985.00
2023-05-21T10:25:00.603Z,5742.00
2023-05-21T10:26:00.592Z,6514.00
2023-05-21T10:27:00.566Z,6000.00
2023-05-21T10:28:00.575Z,6408.00
2023-05-21T10:29:00.670Z,6644.00
2023-05-21T10:30:00.581Z,6321.00
2023-05-21T10:31:00.566Z,6991.00
2023-05-21T10:32:00.601Z,6400.00
2023-05-21T10:33:00.749Z,6615.00
2023-05-21T10:34:00.500Z,6375.00
2023-05-21T10:35:01.617Z,6391.00
2023-05-21T10:36:00.519Z,6847.00
2023-05-21T10:37:00.494Z,7199.00
2023-05-21T10:38:00.471Z,7343.00
2023-05-21T10:39:00.500Z,6805.00
2023-05-21T10:40:00.469Z,7342.00
2023-05-21T10:41:00.434Z,7028.00
2023-05-21T10:42:00.460Z,6942.00
2023-05-21T10:43:00.442Z,8611.00
2023-05-21T10:44:00.406Z,5540.00
2023-05-21T10:45:00.414Z,6326.00
2023-05-21T10:46:00.398Z,5345.00
2023-05-21T10:47:00.371Z,5905.00
2023-05-21T10:48:00.444Z,5851.00
2023-05-21T10:49:00.387Z,5756.00
2023-05-21T10:50:00.357Z,5739.00
2023-05-21T10:51:00.368Z,5774.00
2023-05-21T10:52:00.302Z,8975.00
2023-05-21T10:53:00.310Z,1977.00
2023-05-21T10:54:00.529Z,8005.00
2023-05-21T10:55:00.294Z,5736.00
2023-05-21T10:56:00.283Z,7710.00
2023-05-21T10:57:00.260Z,6492.00
2023-05-21T10:58:00.233Z,6303.00
2023-05-21T10:59:00.239Z,5022.00
2023-05-21T11:00:00.259Z,4569.00
2023-05-21T11:01:00.290Z,5096.00
2023-05-21T11:02:00.322Z,4606.00
2023-05-21T11:03:00.347Z,4087.00
2023-05-21T11:04:00.303Z,5129.00
2023-05-21T11:05:00.231Z,4753.00
2023-05-21T11:06:00.165Z,5298.00
2023-05-21T11:07:00.190Z,5026.00
2023-05-21T11:08:00.165Z,4936.00
2023-05-21T11:09:00.189Z,4466.00
2023-05-21T11:10:00.174Z,4263.00
2023-05-21T11:11:00.298Z,3603.00
2023-05-21T11:12:00.264Z,3620.00
2023-05-21T11:13:00.168Z,3575.00
2023-05-21T11:14:00.130Z,3598.00
2023-05-21T11:15:00.101Z,3592.00
2023-05-21T11:16:00.113Z,4184.00
2023-05-21T11:17:00.121Z,4319.00
2023-05-21T11:18:00.358Z,4190.00
2023-05-21T11:19:00.135Z,3551.00
2023-05-21T11:20:00.204Z,4306.00
2023-05-21T11:21:00.037Z,4286.00
2023-05-21T11:22:00.147Z,4508.00
2023-05-21T11:23:00.072Z,5013.00
2023-05-21T11:23:59.960Z,5167.00
2023-05-21T11:25:00.017Z,5081.00
2023-05-21T11:25:59.942Z,6306.00
2023-05-21T11:26:59.970Z,5454.00
2023-05-21T11:27:59.960Z,5137.00
2023-05-21T11:28:59.950Z,5630.00
2023-05-21T11:29:59.947Z,5310.00
2023-05-21T11:30:59.996Z,6262.00
2023-05-21T11:32:00.292Z,5990.00
2023-05-21T11:32:59.917Z,6288.00
2023-05-21T11:33:59.911Z,6102.00
2023-05-21T11:34:59.900Z,6289.00
2023-05-21T11:35:59.910Z,6417.00
2023-05-21T11:36:59.817Z,6044.00
2023-05-21T11:37:59.835Z,5912.00
2023-05-21T11:38:59.896Z,7260.00
2023-05-21T11:39:59.838Z,6867.00
2023-05-21T11:40:59.800Z,6535.00
2023-05-21T11:42:01.735Z,7094.00
2023-05-21T11:42:59.901Z,7025.00
2023-05-21T11:43:59.867Z,7640.00
2023-05-21T11:44:59.763Z,7547.00
2023-05-21T11:45:59.789Z,7395.00
2023-05-21T11:46:59.818Z,7499.00
2023-05-21T11:47:59.793Z,7847.00
2023-05-21T11:48:59.719Z,7517.00
2023-05-21T11:49:59.695Z,8160.00
2023-05-21T11:50:59.693Z,7493.00
2023-05-21T11:51:59.732Z,7368.00
2023-05-21T11:52:59.682Z,7746.00
2023-05-21T11:53:59.663Z,7482.00
2023-05-21T11:54:59.674Z,8189.00
2023-05-21T11:55:59.643Z,7548.00
2023-05-21T11:56:59.729Z,7411.00
2023-05-21T11:57:59.659Z,7060.00
2023-05-21T11:58:59.594Z,7599.00
2023-05-21T11:59:59.636Z,8057.00
2023-05-21T12:00:59.587Z,7674.00
2023-05-21T12:01:59.560Z,7733.00
2023-05-21T12:02:59.696Z,7698.00
2023-05-21T12:03:59.601Z,7018.00
2023-05-21T12:04:59.536Z,7272.00
2023-05-21T12:05:59.555Z,6459.00
2023-05-21T12:06:59.530Z,7047.00
2023-05-21T12:07:59.540Z,6824.00
2023-05-21T12:08:59.511Z,7728.00
2023-05-21T12:09:59.516Z,7921.00
2023-05-21T12:10:59.534Z,7414.00
2023-05-21T12:11:59.470Z,8456.00
2023-05-21T12:12:59.548Z,7822.00
2023-05-21T12:13:59.443Z,7751.00
2023-05-21T12:14:59.447Z,8047.00
2023-05-21T12:15:59.433Z,7904.00
2023-05-21T12:16:59.431Z,7376.00
2023-05-21T12:17:59.450Z,8007.00
2023-05-21T12:18:59.608Z,7882.00
2023-05-21T12:19:59.416Z,8449.00
2023-05-21T12:20:59.383Z,8188.00
2023-05-21T12:21:59.414Z,7927.00
2023-05-21T12:22:59.417Z,8479.00
2023-05-21T12:23:59.415Z,8755.00
2023-05-21T12:24:59.359Z,7758.00
2023-05-21T12:25:59.323Z,8029.00
2023-05-21T12:26:59.322Z,7940.00
2023-05-21T12:27:59.292Z,8679.00
2023-05-21T12:28:59.324Z,8270.00
2023-05-21T12:29:59.304Z,8860.00
2023-05-21T12:30:59.303Z,9036.00
2023-05-21T12:31:59.341Z,8985.00
2023-05-21T12:32:59.326Z,8737.00
2023-05-21T12:33:59.305Z,8880.00
2023-05-21T12:34:59.232Z,10077.00
2023-05-21T12:35:59.244Z,8292.00
2023-05-21T12:36:59.219Z,9205.00
2023-05-21T12:37:59.194Z,10767.00
2023-05-21T12:38:59.186Z,11886.00
2023-05-21T12:39:59.353Z,11333.00
2023-05-21T12:40:59.158Z,11962.00
2023-05-21T12:41:59.155Z,12189.00
2023-05-21T12:42:59.224Z,12060.00
2023-05-21T12:43:59.147Z,13198.00
2023-05-21T12:44:59.148Z,12863.00
2023-05-21T12:45:59.272Z,11312.00
2023-05-21T12:46:59.116Z,12353.00
2023-05-21T12:47:59.124Z,11356.00
2023-05-21T12:48:59.121Z,11376.00
2023-05-21T12:49:59.069Z,13781.00
2023-05-21T12:50:59.130Z,14139.00
2023-05-21T12:51:59.101Z,16629.00
2023-05-21T12:52:59.099Z,11796.00
2023-05-21T12:53:59.016Z,8983.00
2023-05-21T12:54:59.053Z,13755.00
2023-05-21T12:55:59.009Z,6973.00
2023-05-21T12:56:59.002Z,12909.00
2023-05-21T12:57:59.015Z,15756.00
2023-05-21T12:58:59.015Z,16861.00
2023-05-21T12:59:58.960Z,16896.00
2023-05-21T13:00:58.992Z,16642.00
2023-05-21T13:01:59.002Z,19254.00
2023-05-21T13:02:58.957Z,12678.00
2023-05-21T13:03:58.964Z,13860.00
2023-05-21T13:04:58.983Z,21251.00
2023-05-21T13:05:58.898Z,19943.00
2023-05-21T13:06:58.916Z,6242.00
2023-05-21T13:07:58.933Z,13775.00
2023-05-21T13:08:58.876Z,16779.00
2023-05-21T13:09:58.861Z,19204.00
2023-05-21T13:10:58.852Z,19771.00
2023-05-21T13:11:59.324Z,19739.00
2023-05-21T13:12:58.886Z,20991.00
2023-05-21T13:13:58.839Z,24098.00
2023-05-21T13:14:59.661Z,19230.00
2023-05-21T13:15:58.830Z,21963.00
2023-05-21T13:16:59.918Z,23050.00
2023-05-21T13:17:58.851Z,19942.00
2023-05-21T13:18:58.832Z,14835.00
2023-05-21T13:19:58.780Z,18493.00
2023-05-21T13:20:58.759Z,21755.00
2023-05-21T13:21:58.756Z,10385.00
2023-05-21T13:22:58.838Z,18713.00
2023-05-21T13:23:58.743Z,16230.00
2023-05-21T13:24:58.719Z,23671.00
2023-05-21T13:25:58.708Z,23046.00
2023-05-21T13:26:58.718Z,23517.00
2023-05-21T13:27:58.760Z,22054.00
2023-05-21T13:28:58.662Z,23095.00
2023-05-21T13:29:58.753Z,20090.00
2023-05-21T13:30:58.694Z,19639.00
2023-05-21T13:31:58.652Z,17695.00
2023-05-21T13:32:58.694Z,20228.00
2023-05-21T13:33:58.741Z,22636.00
2023-05-21T13:34:58.638Z,5814.00
2023-05-21T13:35:58.673Z,5490.00
2023-05-21T13:36:58.643Z,2204.00
2023-05-21T13:37:58.694Z,4558.00
2023-05-21T13:38:58.618Z,29321.00
2023-05-21T13:39:58.591Z,24644.00
2023-05-21T13:40:58.578Z,28579.00
2023-05-21T13:41:58.536Z,23460.00
2023-05-21T13:42:58.544Z,25772.00
2023-05-21T13:43:58.559Z,27994.00
2023-05-21T13:44:58.520Z,25636.00
2023-05-21T13:45:58.508Z,23299.00
2023-05-21T13:46:58.502Z,22124.00
2023-05-21T13:47:58.584Z,25104.00
2023-05-21T13:48:58.494Z,24337.00
2023-05-21T13:49:58.463Z,21992.00
2023-05-21T13:50:58.484Z,21014.00
2023-05-21T13:51:58.461Z,20419.00
2023-05-21T13:52:58.487Z,17184.00
2023-05-21T13:53:58.543Z,16331.00
2023-05-21T13:54:58.407Z,17892.00
2023-05-21T13:55:58.540Z,12615.00
2023-05-21T13:56:58.591Z,13986.00
2023-05-21T13:57:58.383Z,16189.00
2023-05-21T13:58:58.372Z,18690.00
2023-05-21T13:59:58.403Z,21725.00
2023-05-21T14:00:58.404Z,25251.00
2023-05-21T14:01:58.413Z,26231.00
2023-05-21T14:02:58.374Z,18056.00
2023-05-21T14:03:58.439Z,2273.00
2023-05-21T14:04:58.423Z,4043.00
2023-05-21T14:05:58.307Z,20068.00
2023-05-21T14:06:58.302Z,26604.00
2023-05-21T14:07:58.355Z,21796.00
2023-05-21T14:08:58.270Z,24524.00
2023-05-21T14:09:58.341Z,26514.00
2023-05-21T14:10:58.269Z,22951.00
2023-05-21T14:11:58.248Z,16135.00
2023-05-21T14:13:04.610Z,18256.00
2023-05-21T14:16:19.273Z,4324.00
2023-05-21T14:17:20.397Z,2018.00
2023-05-21T14:18:20.222Z,16454.00
2023-05-21T14:19:20.239Z,13500.00
2023-05-21T14:20:20.235Z,14049.00
2023-05-21T14:21:20.200Z,11880.00
2023-05-21T14:22:20.197Z,11584.00
2023-05-21T14:23:20.178Z,13794.00
2023-05-21T14:24:20.192Z,11134.00
2023-05-21T14:25:20.185Z,9105.00
2023-05-21T14:26:20.144Z,9821.00
2023-05-21T14:27:20.252Z,9714.00
2023-05-21T14:28:20.135Z,8831.00
2023-05-21T14:29:20.165Z,10490.00
2023-05-21T14:30:20.121Z,10624.00
2023-05-21T14:31:20.086Z,14545.00
2023-05-21T14:32:20.181Z,9019.00
2023-05-21T14:33:20.158Z,14437.00
2023-05-21T14:34:20.118Z,11980.00
2023-05-21T14:35:20.151Z,11091.00
2023-05-21T14:36:20.049Z,12105.00
2023-05-21T14:37:20.055Z,14828.00
2023-05-21T14:38:20.123Z,11809.00
2023-05-21T14:39:20.032Z,10449.00
2023-05-21T14:40:20.021Z,14229.00
2023-05-21T14:41:20.068Z,7778.00
2023-05-21T14:42:19.991Z,5467.00
2023-05-21T14:43:21.381Z,14885.00
2023-05-21T14:44:19.998Z,11632.00
2023-05-21T14:45:19.983Z,14076.00
2023-05-21T14:46:20.451Z,15275.00
2023-05-21T14:47:19.965Z,11712.00
2023-05-21T14:48:19.906Z,12243.00
2023-05-21T14:49:19.917Z,12298.00
2023-05-21T14:50:19.898Z,4853.00
2023-05-21T14:51:19.938Z,2062.00
2023-05-21T14:52:19.888Z,11385.00
2023-05-21T14:53:19.864Z,10930.00
2023-05-21T14:54:19.998Z,11759.00
2023-05-21T14:55:19.851Z,13954.00
2023-05-21T14:56:19.869Z,15659.00
2023-05-21T14:57:19.807Z,11954.00
2023-05-21T14:58:19.853Z,10755.00
2023-05-21T14:59:19.813Z,11991.00
2023-05-21T15:00:19.813Z,14715.00
2023-05-21T15:01:19.855Z,15420.00
2023-05-21T15:02:19.841Z,14601.00
2023-05-21T15:03:20.865Z,12291.00
2023-05-21T15:04:19.783Z,15030.00
2023-05-21T15:05:19.712Z,14343.00
2023-05-21T15:06:19.829Z,14971.00
2023-05-21T15:07:19.697Z,15185.00
2023-05-21T15:08:19.737Z,12147.00
2023-05-21T15:09:19.675Z,9037.00
2023-05-21T15:10:19.694Z,5385.00
2023-05-21T15:11:19.676Z,4391.00
2023-05-21T15:12:19.659Z,4126.00
2023-05-21T15:13:19.640Z,5691.00
2023-05-21T15:14:19.640Z,7091.00
2023-05-21T15:15:19.605Z,13578.00
2023-05-21T15:16:19.983Z,18671.00
2023-05-21T15:17:19.600Z,15844.00
2023-05-21T15:18:19.610Z,14708.00
2023-05-21T15:19:19.645Z,14406.00
2023-05-21T15:20:19.758Z,12459.00
2023-05-21T15:21:19.563Z,15478.00
2023-05-21T15:22:19.556Z,9869.00
2023-05-21T15:23:19.736Z,8445.00
2023-05-21T15:24:19.519Z,11353.00
2023-05-21T15:25:19.776Z,8496.00
2023-05-21T15:26:19.524Z,11289.00
2023-05-21T15:27:19.587Z,12766.00
2023-05-21T15:28:19.495Z,13707.00
2023-05-21T15:29:19.759Z,13060.00
2023-05-21T15:30:19.528Z,11119.00
2023-05-21T15:31:19.433Z,12763.00
2023-05-21T15:32:19.447Z,7478.00
2023-05-21T15:33:19.434Z,6404.00
2023-05-21T15:34:19.469Z,7068.00
2023-05-21T15:35:19.593Z,8564.00
2023-05-21T15:36:19.384Z,9435.00
2023-05-21T15:37:19.373Z,5388.00
2023-05-21T15:38:19.389Z,5324.00
2023-05-21T15:39:19.382Z,7734.00
2023-05-21T15:40:19.430Z,7288.00
2023-05-21T15:41:19.324Z,6605.00
2023-05-21T15:42:19.344Z,7921.00
2023-05-21T15:43:19.316Z,7500.00
2023-05-21T15:44:19.317Z,8744.00
2023-05-21T15:45:19.290Z,7964.00
2023-05-21T15:46:19.359Z,6327.00
2023-05-21T15:47:19.841Z,6367.00
2023-05-21T15:48:19.252Z,4631.00
2023-05-21T15:49:19.346Z,4299.00
2023-05-21T15:50:19.252Z,5690.00
2023-05-21T15:51:19.230Z,5171.00
2023-05-21T15:52:19.300Z,4955.00
2023-05-21T15:53:19.230Z,4970.00
2023-05-21T15:54:19.232Z,3945.00
2023-05-21T15:55:19.229Z,3842.00
2023-05-21T15:56:19.190Z,9102.00
2023-05-21T15:57:19.171Z,10546.00
2023-05-21T15:58:19.201Z,11278.00
2023-05-21T15:59:19.161Z,7496.00
2023-05-21T16:00:19.227Z,10179.00
2023-05-21T16:01:19.173Z,9564.00
2023-05-21T16:02:19.135Z,17674.00
2023-05-21T16:03:19.245Z,25362.00
2023-05-21T16:04:19.159Z,23044.00
2023-05-21T16:05:19.151Z,21643.00
2023-05-21T16:06:19.092Z,19189.00
2023-05-21T16:07:19.126Z,21825.00
2023-05-21T16:08:19.048Z,16804.00
2023-05-21T16:09:19.101Z,16829.00